Time;durP1;ratioP1;P1;durP2;ratioP2;P2;SDS_P1;SDS_P2;PMS_P1;PMS_P2;Temp;Humidity;BMP_temperature;BMP_pressure;BME280_temperature;BME280_humidity;BME280_pressure;Samples;Min_cycle;Max_cycle;Signal;HPM_P1;HPM_P2
2022/04/22 00:00:20;;;;;;;14.77;8.32;;;10.30;99.90;;;;;;5018378;28;20050;-79
2022/04/22 00:02:45;;;;;;;14.80;8.65;;;10.20;99.90;;;;;;5018963;28;20042;-80
2022/04/22 00:05:11;;;;;;;18.33;9.25;;;10.20;99.90;;;;;;5018234;28;20083;-79
2022/04/22 00:07:37;;;;;;;16.15;8.40;;;10.20;99.90;;;;;;5018635;28;20103;-79
2022/04/22 00:10:05;;;;;;;18.65;8.82;;;10.10;99.90;;;;;;5018212;28;20126;-80
2022/04/22 00:12:30;;;;;;;16.33;8.45;;;10.10;99.90;;;;;;4984436;28;20054;-80
2022/04/22 00:14:56;;;;;;;15.15;8.20;;;10.70;99.90;;;;;;5014853;28;20041;-80
2022/04/22 00:17:22;;;;;;;16.48;8.40;;;10.20;99.90;;;;;;5018212;28;20205;-82
2022/04/22 00:19:47;;;;;;;14.45;8.75;;;10.60;99.90;;;;;;5001926;28;20060;-80
2022/04/22 00:22:13;;;;;;;19.00;8.20;;;10.00;99.90;;;;;;5001944;28;20072;-80
2022/04/22 00:24:39;;;;;;;18.98;8.40;;;10.40;99.90;;;;;;5018309;28;20063;-80
2022/04/22 00:27:04;;;;;;;14.77;8.32;;;10.50;99.90;;;;;;5018206;28;20037;-80
2022/04/22 00:29:30;;;;;;;15.43;8.80;;;10.00;99.90;;;;;;5036301;28;20062;-79
2022/04/22 00:31:55;;;;;;;16.83;8.32;;;9.90;99.90;;;;;;5014857;28;20053;-78
2022/04/22 00:34:21;;;;;;;16.65;9.15;;;10.10;99.90;;;;;;5013225;28;20449;-80
2022/04/22 00:36:47;;;;;;;18.05;8.60;;;9.90;99.90;;;;;;4980987;28;20046;-79
2022/04/22 00:39:12;;;;;;;13.77;8.60;;;9.80;99.90;;;;;;4981026;28;20061;-79
2022/04/22 00:41:38;;;;;;;19.95;8.90;;;9.90;99.90;;;;;;4996347;28;20466;-80
2022/04/22 00:44:04;;;;;;;16.38;8.35;;;9.80;99.90;;;;;;4980699;28;20049;-81
2022/04/22 00:46:29;;;;;;;13.30;8.18;;;9.80;99.90;;;;;;5013514;28;20061;-79
2022/04/22 00:48:57;;;;;;;14.32;7.95;;;9.70;99.90;;;;;;4981461;28;20593;-81
2022/04/22 00:51:23;;;;;;;16.67;8.73;;;9.80;99.90;;;;;;5013637;28;20057;-79
2022/04/22 00:53:50;;;;;;;19.77;9.85;;;10.20;99.90;;;;;;5013789;28;20157;-79
2022/04/22 00:56:16;;;;;;;16.27;8.98;;;10.30;99.90;;;;;;4982826;28;20045;-80
2022/04/22 00:58:44;;;;;;;17.77;9.38;;;9.60;99.90;;;;;;4996858;28;20062;-79
2022/04/22 01:01:13;;;;;;;15.18;8.73;;;9.50;99.90;;;;;;4997273;28;20108;-80
2022/04/22 01:03:39;;;;;;;15.90;8.85;;;9.50;99.90;;;;;;4980969;28;20148;-79
2022/04/22 01:11:37;;;;;;;14.50;9.27;;;9.40;99.90;;;;;;5013154;28;20046;-79
2022/04/22 01:14:07;;;;;;;15.35;9.13;;;9.30;99.90;;;;;;4997312;28;20060;-81
2022/04/22 01:16:33;;;;;;;22.70;9.70;;;9.30;99.90;;;;;;5013381;28;20049;-80
2022/04/22 01:18:59;;;;;;;11.82;8.20;;;9.40;99.90;;;;;;4994647;28;20375;-80
2022/04/22 01:21:25;;;;;;;15.73;9.38;;;9.20;99.90;;;;;;5013020;28;20042;-80
2022/04/22 01:23:53;;;;;;;15.68;9.07;;;9.20;99.90;;;;;;4997076;28;20062;-78
2022/04/22 01:26:19;;;;;;;18.60;10.00;;;9.20;99.90;;;;;;4992594;28;20052;-79
2022/04/22 01:28:46;;;;;;;14.60;8.90;;;9.20;99.90;;;;;;4982291;28;20046;-80
2022/04/22 01:31:11;;;;;;;22.13;9.63;;;9.10;99.90;;;;;;4996569;28;20052;-80
2022/04/22 01:33:37;;;;;;;17.15;9.40;;;9.10;99.90;;;;;;5014812;28;20045;-79
2022/04/22 01:36:03;;;;;;;16.65;8.95;;;9.00;99.90;;;;;;5017534;28;20393;-78
2022/04/22 01:38:30;;;;;;;15.48;9.15;;;9.00;99.90;;;;;;5034361;28;20049;-77
2022/04/22 01:40:55;;;;;;;18.85;9.63;;;9.00;99.90;;;;;;4977425;28;20125;-78
2022/04/22 01:43:21;;;;;;;21.05;9.32;;;8.90;99.90;;;;;;4977071;28;20047;-79
2022/04/22 01:45:47;;;;;;;15.63;9.70;;;8.90;99.90;;;;;;4976563;28;20062;-80
2022/04/22 01:48:13;;;;;;;17.98;9.35;;;9.00;99.90;;;;;;4993306;28;20066;-80
2022/04/22 01:50:38;;;;;;;22.70;9.77;;;8.90;99.90;;;;;;4977163;28;20054;-80
2022/04/22 01:53:06;;;;;;;16.02;9.13;;;8.80;99.90;;;;;;4994550;28;20053;-79
2022/04/22 01:55:33;;;;;;;18.45;9.30;;;8.80;99.90;;;;;;4964625;28;20103;-78
2022/04/22 01:57:59;;;;;;;16.80;9.02;;;8.70;99.90;;;;;;4964259;28;20123;-80
2022/04/22 02:00:24;;;;;;;19.33;9.10;;;8.90;99.90;;;;;;4980617;28;20467;-80
2022/04/22 02:02:53;;;;;;;15.13;9.00;;;8.40;99.90;;;;;;4994650;28;20442;-80
2022/04/22 02:05:18;;;;;;;16.75;8.38;;;8.70;99.90;;;;;;4996044;28;20053;-79
2022/04/22 02:07:45;;;;;;;14.80;8.82;;;8.80;99.90;;;;;;4961028;28;20478;-78
2022/04/22 02:10:11;;;;;;;17.20;8.68;;;8.60;99.90;;;;;;4960821;28;20063;-80
2022/04/22 02:12:37;;;;;;;14.30;9.07;;;8.60;99.90;;;;;;4979976;28;20054;-80
2022/04/22 02:15:02;;;;;;;15.30;8.43;;;8.60;99.90;;;;;;5000000;28;20054;-78
2022/04/22 02:17:28;;;;;;;13.77;7.80;;;8.60;99.90;;;;;;5003483;28;20047;-79
2022/04/22 02:19:55;;;;;;;16.63;8.18;;;8.60;99.90;;;;;;4976860;28;20062;-80
2022/04/22 02:22:22;;;;;;;15.23;7.53;;;8.60;99.90;;;;;;4980053;28;20565;-80
2022/04/22 02:24:48;;;;;;;18.23;8.52;;;8.60;99.90;;;;;;4996309;28;20046;-81
2022/04/22 02:29:58;;;;;;;15.02;7.47;;;8.50;99.90;;;;;;5012884;28;20047;-81
2022/04/22 02:32:23;;;;;;;15.65;7.45;;;8.50;99.90;;;;;;4996014;28;20125;-81
2022/04/22 02:34:49;;;;;;;12.05;6.75;;;8.50;99.90;;;;;;5012376;28;20113;-79
2022/04/22 02:37:17;;;;;;;15.23;7.00;;;8.40;99.90;;;;;;4963632;28;20069;-80
2022/04/22 02:39:43;;;;;;;11.35;7.03;;;8.40;99.90;;;;;;5018873;28;20073;-80
2022/04/22 02:47:37;;;;;;;13.02;7.10;;;8.70;99.90;;;;;;5032771;28;20053;-80
2022/04/22 02:50:03;;;;;;;13.95;6.78;;;8.30;99.90;;;;;;5035426;28;20064;-79
2022/04/22 02:52:29;;;;;;;13.73;6.03;;;8.30;99.90;;;;;;5054752;28;20049;-82
2022/04/22 02:54:54;;;;;;;9.73;6.32;;;8.30;99.90;;;;;;5018956;28;20115;-79
2022/04/22 02:57:20;;;;;;;11.40;6.43;;;8.20;99.90;;;;;;5056945;28;20471;-81
2022/04/22 02:59:46;;;;;;;13.45;6.75;;;8.40;99.90;;;;;;5039323;28;20124;-79
2022/04/22 03:02:12;;;;;;;10.57;6.25;;;8.70;99.90;;;;;;5023781;28;20440;-81
2022/04/22 03:04:39;;;;;;;15.02;6.35;;;8.20;99.90;;;;;;5056350;28;20361;-80
2022/04/22 03:07:06;;;;;;;16.35;6.57;;;8.30;99.90;;;;;;5056902;28;20060;-79
2022/04/22 03:09:32;;;;;;;12.75;6.45;;;8.60;99.90;;;;;;5039189;28;20131;-78
2022/04/22 03:11:59;;;;;;;11.52;6.18;;;8.10;99.90;;;;;;5039371;28;20092;-79
2022/04/22 03:14:24;;;;;;;11.82;6.93;;;8.10;99.90;;;;;;5039178;28;20056;-79
2022/04/22 03:16:50;;;;;;;17.38;6.90;;;8.60;99.90;;;;;;5013424;28;20050;-81
2022/04/22 03:19:16;;;;;;;12.43;6.72;;;8.00;99.90;;;;;;5003480;28;20052;-80
2022/04/22 03:21:43;;;;;;;12.32;6.80;;;8.00;99.90;;;;;;5036673;28;20041;-79
2022/04/22 03:24:09;;;;;;;11.25;6.60;;;8.10;99.90;;;;;;5002701;28;20096;-80
2022/04/22 03:26:35;;;;;;;14.38;6.55;;;8.00;99.90;;;;;;4999759;28;20049;-81
2022/04/22 03:29:01;;;;;;;10.60;6.93;;;8.70;99.90;;;;;;5036189;28;20060;-79
2022/04/22 03:31:28;;;;;;;13.55;6.72;;;7.90;99.90;;;;;;5002857;28;20103;-81
2022/04/22 03:33:53;;;;;;;14.18;6.80;;;7.80;99.90;;;;;;5019281;28;20440;-80
2022/04/22 03:36:19;;;;;;;13.35;6.38;;;8.20;99.90;;;;;;5016709;28;20081;-80
2022/04/22 03:38:45;;;;;;;12.25;6.63;;;7.90;99.90;;;;;;5019445;28;20054;-80
2022/04/22 03:41:10;;;;;;;14.23;6.80;;;7.80;99.90;;;;;;5002391;28;20140;-81
2022/04/22 03:43:37;;;;;;;11.82;6.75;;;8.20;99.90;;;;;;5002194;28;20068;-79
2022/04/22 03:46:03;;;;;;;13.68;6.70;;;7.70;99.90;;;;;;5018607;28;20081;-80
2022/04/22 03:48:28;;;;;;;10.95;6.25;;;7.70;99.90;;;;;;5030885;28;20084;-81
2022/04/22 03:50:54;;;;;;;12.85;7.18;;;7.80;99.90;;;;;;5015199;28;20055;-79
2022/04/22 03:53:20;;;;;;;11.35;6.22;;;7.60;99.90;;;;;;5035237;28;20041;-80
2022/04/22 03:55:46;;;;;;;13.60;6.78;;;7.60;99.90;;;;;;5017872;28;20050;-79
2022/04/22 03:58:12;;;;;;;10.95;6.40;;;7.60;99.90;;;;;;5001429;28;20525;-79
2022/04/22 04:00:42;;;;;;;12.15;6.50;;;8.00;99.90;;;;;;5001365;28;20060;-80
2022/04/22 04:03:14;;;;;;;13.65;6.30;;;7.60;99.90;;;;;;5001394;28;20118;-81
2022/04/22 04:05:42;;;;;;;10.02;6.63;;;7.60;99.90;;;;;;5000803;28;20042;-79
2022/04/22 04:08:10;;;;;;;14.02;6.85;;;7.90;99.90;;;;;;5034940;28;20042;-81
2022/04/22 04:16:04;;;;;;;12.25;6.40;;;7.50;99.90;;;;;;5036353;28;20057;-78
2022/04/22 04:18:37;;;;;;;11.38;6.10;;;7.50;99.90;;;;;;5023976;28;20055;-79
2022/04/22 04:23:50;;;;;;;11.35;5.95;;;7.50;99.90;;;;;;5020015;28;20107;-79
2022/04/22 04:26:17;;;;;;;15.40;6.72;;;7.40;99.90;;;;;;5036098;28;20048;-78
2022/04/22 04:28:44;;;;;;;9.23;6.45;;;7.50;99.90;;;;;;4994252;28;20128;-79
2022/04/22 04:31:13;;;;;;;14.50;6.88;;;8.30;99.90;;;;;;4999530;28;20041;-80
2022/04/22 04:33:39;;;;;;;9.85;6.40;;;7.60;99.90;;;;;;5016336;28;20038;-77
2022/04/22 04:36:06;;;;;;;13.27;5.65;;;7.40;99.90;;;;;;5014713;28;20045;-78
2022/04/22 04:38:32;;;;;;;12.57;6.18;;;7.40;99.90;;;;;;4995645;28;20041;-80
2022/04/22 04:40:58;;;;;;;11.73;6.50;;;7.40;99.90;;;;;;5016746;28;20051;-79
2022/04/22 04:43:24;;;;;;;9.57;5.80;;;8.10;99.90;;;;;;5010542;28;102140;-76
2022/04/22 04:45:50;;;;;;;17.25;6.80;;;7.40;99.90;;;;;;4986436;28;20046;-74
2022/04/22 04:48:17;;;;;;;15.10;6.68;;;8.10;99.90;;;;;;5021790;28;20037;-75
2022/04/22 04:50:44;;;;;;;9.75;6.32;;;7.40;99.90;;;;;;5014288;28;20034;-75
2022/04/22 04:53:13;;;;;;;11.50;6.30;;;7.40;99.90;;;;;;5000779;28;20461;-75
2022/04/22 04:55:40;;;;;;;13.43;6.00;;;7.40;99.90;;;;;;5034880;28;20048;-75
2022/04/22 04:58:06;;;;;;;12.98;6.50;;;7.50;99.90;;;;;;5017113;28;20480;-75
2022/04/22 05:00:33;;;;;;;11.93;6.40;;;7.50;99.90;;;;;;5034487;28;20041;-74
2022/04/22 05:02:59;;;;;;;10.55;6.82;;;7.50;99.90;;;;;;5034271;28;20099;-75
2022/04/22 05:05:25;;;;;;;10.50;5.95;;;7.50;99.90;;;;;;5044873;28;20040;-74
2022/04/22 05:07:57;;;;;;;9.25;6.95;;;7.50;99.90;;;;;;5036883;28;20044;-74
2022/04/22 05:10:24;;;;;;;8.77;5.90;;;7.60;99.90;;;;;;5036654;28;20048;-75
2022/04/22 05:12:50;;;;;;;10.43;6.43;;;7.50;99.90;;;;;;5036741;28;20060;-74
2022/04/22 05:15:17;;;;;;;10.63;5.95;;;7.50;99.90;;;;;;5036637;28;20124;-74
2022/04/22 05:17:43;;;;;;;9.73;6.20;;;7.50;99.90;;;;;;5054407;28;20138;-74
2022/04/22 05:20:11;;;;;;;9.98;6.53;;;7.60;99.90;;;;;;5036285;28;20045;-75
2022/04/22 05:22:38;;;;;;;12.18;6.32;;;7.60;99.90;;;;;;5017088;28;20068;-75
2022/04/22 05:25:05;;;;;;;9.93;6.45;;;7.60;99.90;;;;;;5000571;28;20060;-74
2022/04/22 05:27:32;;;;;;;10.98;6.40;;;7.70;99.90;;;;;;5017153;28;20049;-75
2022/04/22 05:32:47;;;;;;;10.60;6.22;;;7.80;99.90;;;;;;5020297;28;20041;-74
2022/04/22 05:35:13;;;;;;;11.88;6.13;;;7.90;99.90;;;;;;5019459;28;20050;-75
2022/04/22 05:37:52;;;;;;;11.38;6.13;;;7.90;99.90;;;;;;5038230;28;20572;-75
2022/04/22 05:40:20;;;;;;;9.13;5.93;;;8.10;99.90;;;;;;5037762;28;20144;-74
2022/04/22 05:42:47;;;;;;;10.80;5.93;;;8.40;99.90;;;;;;5037606;28;20056;-73
2022/04/22 05:45:13;;;;;;;8.45;5.38;;;8.70;99.90;;;;;;5003128;28;20061;-73
2022/04/22 05:47:41;;;;;;;8.05;5.22;;;8.90;99.90;;;;;;5018337;28;20473;-73
2022/04/22 05:50:09;;;;;;;13.02;5.40;;;9.50;99.90;;;;;;5017888;28;20096;-73
2022/04/22 05:52:37;;;;;;;8.93;4.68;;;10.50;99.90;;;;;;5037388;28;20085;-72
2022/04/22 05:55:03;;;;;;;8.60;4.35;;;11.60;99.90;;;;;;5036992;28;20045;-73
2022/04/22 05:57:33;;;;;;;11.30;4.97;;;12.60;99.90;;;;;;5037493;28;20393;-72
2022/04/22 05:59:59;;;;;;;10.88;4.72;;;13.70;99.90;;;;;;5037383;28;20080;-72
2022/04/22 06:02:26;;;;;;;7.22;3.75;;;14.20;99.90;;;;;;5037892;28;20045;-72
2022/04/22 06:04:52;;;;;;;7.35;3.90;;;14.50;99.90;;;;;;5041106;28;20095;-74
2022/04/22 06:07:19;;;;;;;6.07;3.65;;;14.80;99.90;;;;;;5024823;28;20045;-74
2022/04/22 06:12:29;;;;;;;8.68;3.63;;;15.30;99.90;;;;;;5036572;28;20092;-74
2022/04/22 06:14:56;;;;;;;6.10;3.42;;;16.00;99.90;;;;;;5035634;28;20410;-72
2022/04/22 06:17:21;;;;;;;5.60;3.30;;;16.30;99.90;;;;;;5037432;28;20438;-74
2022/04/22 06:19:47;;;;;;;5.65;3.70;;;16.80;99.90;;;;;;5036363;28;20042;-75
2022/04/22 06:22:12;;;;;;;6.43;3.00;;;16.40;98.70;;;;;;5036959;28;20045;-73
2022/04/22 06:24:38;;;;;;;5.70;3.33;;;16.40;99.90;;;;;;5035932;28;20056;-74
2022/04/22 06:27:04;;;;;;;7.18;3.50;;;17.10;99.90;;;;;;5035288;28;20048;-73
2022/04/22 06:29:30;;;;;;;6.22;3.30;;;17.30;96.20;;;;;;5036858;28;20033;-74
2022/04/22 06:31:55;;;;;;;5.63;2.83;;;17.50;97.40;;;;;;5019555;28;20037;-73
2022/04/22 06:34:22;;;;;;;8.02;2.88;;;17.70;96.20;;;;;;5037294;28;20048;-74
2022/04/22 06:36:48;;;;;;;6.40;2.92;;;17.70;95.90;;;;;;5036711;28;20359;-76
2022/04/22 06:39:14;;;;;;;7.00;3.03;;;17.70;94.90;;;;;;5035105;28;20041;-76
2022/04/22 06:47:10;;;;;;;5.68;2.85;;;18.20;93.20;;;;;;5014437;28;20050;-73
2022/04/22 06:49:35;;;;;;;5.47;2.92;;;18.20;94.10;;;;;;5014580;28;20125;-71
2022/04/22 06:52:01;;;;;;;3.90;2.47;;;18.50;94.40;;;;;;4998206;28;20124;-71
2022/04/22 06:54:27;;;;;;;4.22;2.60;;;18.10;93.00;;;;;;5022408;28;20111;-69
2022/04/22 06:56:53;;;;;;;5.65;2.50;;;17.30;92.90;;;;;;5031348;28;20106;-71
2022/04/22 06:59:21;;;;;;;6.70;2.60;;;16.20;94.40;;;;;;5028078;28;20125;-72
2022/04/22 07:01:47;;;;;;;6.95;2.70;;;14.80;96.40;;;;;;5030628;28;20187;-74
2022/04/22 07:04:13;;;;;;;4.70;2.90;;;14.20;98.40;;;;;;5033239;28;20112;-73
2022/04/22 07:06:39;;;;;;;6.15;3.08;;;13.50;99.90;;;;;;5018057;28;20053;-71
2022/04/22 07:09:05;;;;;;;6.13;2.85;;;13.10;99.90;;;;;;5034237;28;20049;-73
2022/04/22 07:11:34;;;;;;;8.43;2.72;;;12.90;99.90;;;;;;5030654;28;20049;-72
2022/04/22 07:14:00;;;;;;;7.97;2.90;;;12.60;99.90;;;;;;5033857;28;20057;-73
2022/04/22 07:16:27;;;;;;;5.55;2.83;;;12.60;99.90;;;;;;5004261;28;20057;-71
2022/04/22 07:18:53;;;;;;;6.78;3.03;;;12.50;99.90;;;;;;5034690;28;20057;-72
2022/04/22 07:21:19;;;;;;;7.05;3.30;;;12.30;99.90;;;;;;5036088;28;20084;-71
2022/04/22 07:23:45;;;;;;;6.88;3.15;;;12.20;99.90;;;;;;5018292;28;20048;-74
2022/04/22 07:26:11;;;;;;;6.95;3.05;;;12.10;99.90;;;;;;5035393;28;20041;-72
2022/04/22 07:28:38;;;;;;;6.72;3.17;;;12.10;99.90;;;;;;5035641;28;20077;-73
2022/04/22 07:31:04;;;;;;;8.52;3.17;;;11.80;99.90;;;;;;5035882;28;20055;-72
2022/04/22 07:33:31;;;;;;;4.80;2.92;;;11.90;99.90;;;;;;5036209;28;20136;-72
2022/04/22 07:35:57;;;;;;;7.80;3.30;;;11.90;99.90;;;;;;5033951;28;20049;-70
2022/04/22 07:38:24;;;;;;;6.07;2.90;;;12.00;99.90;;;;;;5037542;28;20055;-72
2022/04/22 07:40:51;;;;;;;6.57;3.15;;;12.00;99.90;;;;;;5055547;28;20068;-72
2022/04/22 07:48:47;;;;;;;6.45;3.58;;;12.60;99.90;;;;;;5038002;28;20045;-74
2022/04/22 07:51:15;;;;;;;7.68;3.20;;;13.20;99.90;;;;;;5035080;28;20056;-72
2022/04/22 07:53:40;;;;;;;8.57;2.92;;;13.00;99.90;;;;;;5055477;28;20133;-70
2022/04/22 07:56:06;;;;;;;5.50;3.20;;;12.60;99.90;;;;;;5055344;28;20084;-71
2022/04/22 07:58:32;;;;;;;6.00;3.03;;;12.40;99.90;;;;;;5054972;28;20123;-73
2022/04/22 08:00:58;;;;;;;7.40;3.22;;;12.20;99.90;;;;;;5037809;28;20133;-72
2022/04/22 08:03:24;;;;;;;5.57;3.33;;;12.30;99.90;;;;;;5031741;28;20052;-73
2022/04/22 08:05:50;;;;;;;8.32;3.50;;;12.30;99.90;;;;;;5034924;28;20205;-71
2022/04/22 08:08:16;;;;;;;6.20;3.20;;;12.60;99.90;;;;;;5016616;28;20488;-69
2022/04/22 08:10:42;;;;;;;7.43;3.30;;;13.70;99.90;;;;;;5034453;28;20409;-71
2022/04/22 08:13:07;;;;;;;5.82;3.38;;;14.60;99.90;;;;;;5034856;28;20038;-71
2022/04/22 08:15:36;;;;;;;5.53;2.70;;;15.60;99.90;;;;;;5034452;28;20073;-72
2022/04/22 08:18:04;;;;;;;6.43;2.88;;;16.00;99.90;;;;;;5034091;28;20465;-72
2022/04/22 08:20:32;;;;;;;5.68;3.00;;;16.70;99.90;;;;;;5035260;28;20408;-72
2022/04/22 08:23:02;;;;;;;6.28;2.88;;;17.30;98.80;;;;;;5034572;28;20354;-72
2022/04/22 08:25:28;;;;;;;10.02;3.20;;;17.40;97.50;;;;;;5034898;28;20114;-70
2022/04/22 08:27:54;;;;;;;5.78;2.55;;;17.50;97.30;;;;;;5034627;28;20041;-74
2022/04/22 08:30:20;;;;;;;7.45;3.20;;;17.50;97.40;;;;;;5034793;28;20045;-73
2022/04/22 08:32:45;;;;;;;7.30;3.33;;;17.90;96.90;;;;;;5035036;28;20046;-72
2022/04/22 08:35:11;;;;;;;7.53;2.90;;;17.20;96.40;;;;;;5049727;28;20476;-70
2022/04/22 08:37:37;;;;;;;5.00;2.97;;;17.20;95.60;;;;;;5054519;28;20033;-74
2022/04/22 08:40:07;;;;;;;6.05;2.95;;;17.40;95.90;;;;;;5054323;28;20099;-74
2022/04/22 08:42:38;;;;;;;4.22;2.42;;;17.60;95.90;;;;;;5037266;28;20453;-73
2022/04/22 08:45:06;;;;;;;8.32;2.92;;;17.70;94.80;;;;;;5037012;28;20068;-76
2022/04/22 08:50:19;;;;;;;7.50;2.63;;;17.80;94.40;;;;;;5054378;28;20464;-75
2022/04/22 08:53:03;;;;;;;6.40;2.85;;;17.90;94.70;;;;;;5034725;28;20470;-73
2022/04/22 08:55:30;;;;;;;6.65;2.85;;;17.60;94.90;;;;;;5017376;28;20124;-74
2022/04/22 08:57:56;;;;;;;4.28;2.53;;;17.20;94.60;;;;;;5034617;28;20095;-76
2022/04/22 09:00:22;;;;;;;6.30;2.70;;;17.10;95.30;;;;;;5034589;28;20045;-76
2022/04/22 09:02:48;;;;;;;6.07;2.63;;;16.70;95.20;;;;;;5018270;28;20041;-73
2022/04/22 09:05:14;;;;;;;6.43;2.50;;;16.30;96.30;;;;;;5038458;28;20077;-75
2022/04/22 09:07:43;;;;;;;5.03;2.30;;;15.60;96.30;;;;;;5038604;28;20099;-75
2022/04/22 09:12:56;;;;;;;6.65;3.00;;;15.30;97.20;;;;;;5092232;22;20064;-73
2022/04/22 09:15:24;;;;;;;6.57;2.55;;;15.10;98.20;;;;;;5044230;28;20072;-76
2022/04/22 09:17:53;;;;;;;5.72;2.72;;;15.00;99.00;;;;;;5038421;28;20045;-75
2022/04/22 09:20:18;;;;;;;8.15;2.55;;;15.00;98.80;;;;;;5038561;28;20053;-74
2022/04/22 09:22:44;;;;;;;4.55;2.60;;;15.10;99.00;;;;;;5021102;28;20129;-75
2022/04/22 09:25:10;;;;;;;7.75;2.78;;;15.30;98.60;;;;;;5038458;28;20057;-74
2022/04/22 09:27:42;;;;;;;6.50;2.80;;;15.70;98.00;;;;;;5038321;28;20045;-73
2022/04/22 09:30:11;;;;;;;7.78;3.00;;;15.90;98.00;;;;;;5038228;28;20045;-73
2022/04/22 09:32:41;;;;;;;5.43;2.67;;;16.20;97.70;;;;;;5038100;28;20042;-76
2022/04/22 09:35:09;;;;;;;7.32;2.78;;;16.50;96.40;;;;;;5004410;28;20041;-74
2022/04/22 09:43:32;;;;;;;6.28;2.75;;;16.90;95.10;;;;;;5018410;28;20046;-74
2022/04/22 09:45:58;;;;;;;8.10;2.72;;;16.60;95.70;;;;;;5000700;28;20446;-75
2022/04/22 09:48:23;;;;;;;6.15;3.20;;;16.20;96.70;;;;;;5018037;28;20042;-75
2022/04/22 09:50:53;;;;;;;5.65;2.65;;;15.90;96.80;;;;;;5018290;28;20524;-73
2022/04/22 09:53:32;;;;;;;5.07;2.80;;;15.70;97.20;;;;;;5000538;28;20049;-73
2022/04/22 09:56:04;;;;;;;5.55;3.20;;;15.60;97.80;;;;;;5018172;28;20113;-74
2022/04/22 09:58:30;;;;;;;7.05;3.38;;;15.60;97.60;;;;;;5018144;28;20414;-74
2022/04/22 10:01:04;;;;;;;6.80;3.33;;;15.60;98.00;;;;;;5017875;28;20041;-74
2022/04/22 10:03:32;;;;;;;6.38;3.25;;;15.60;97.80;;;;;;5000573;28;20382;-73
2022/04/22 10:05:58;;;;;;;6.07;2.92;;;15.40;97.90;;;;;;4984086;28;20382;-75
2022/04/22 10:08:28;;;;;;;8.05;3.13;;;15.60;99.00;;;;;;5018120;28;20038;-73
2022/04/22 10:11:01;;;;;;;6.28;3.28;;;15.50;98.30;;;;;;5027389;28;20103;-76
2022/04/22 10:13:33;;;;;;;7.47;3.40;;;15.60;98.20;;;;;;5037462;28;20351;-73
2022/04/22 10:16:01;;;;;;;6.30;3.30;;;15.60;98.80;;;;;;5037529;28;20052;-74
2022/04/22 10:18:27;;;;;;;5.15;3.05;;;15.60;98.50;;;;;;5020121;28;20045;-73
2022/04/22 10:20:53;;;;;;;8.00;3.35;;;15.80;97.70;;;;;;5019986;28;20064;-74
2022/04/22 10:23:20;;;;;;;7.35;3.47;;;15.80;97.70;;;;;;5020188;28;20420;-74
2022/04/22 10:25:45;;;;;;;8.13;3.65;;;16.00;97.80;;;;;;5037221;28;20034;-74
2022/04/22 10:28:12;;;;;;;6.80;3.63;;;15.90;97.70;;;;;;5019622;28;20366;-75
2022/04/22 10:30:40;;;;;;;7.63;3.42;;;15.80;97.70;;;;;;5015258;28;20054;-74
2022/04/22 10:33:07;;;;;;;8.15;3.70;;;15.80;97.20;;;;;;5019474;28;20120;-74
2022/04/22 10:35:42;;;;;;;6.68;3.17;;;15.90;97.40;;;;;;5020981;28;20055;-75
2022/04/22 10:38:27;;;;;;;9.07;3.13;;;16.10;97.70;;;;;;5056995;28;20045;-74
2022/04/22 10:40:52;;;;;;;5.82;3.10;;;16.20;97.50;;;;;;5039286;28;20068;-75
2022/04/22 10:43:18;;;;;;;6.00;3.30;;;16.20;97.50;;;;;;5034767;28;20461;-74
2022/04/22 10:48:30;;;;;;;4.97;3.10;;;16.40;97.80;;;;;;5056722;28;20056;-75
2022/04/22 10:50:58;;;;;;;6.78;3.30;;;16.50;97.60;;;;;;5039038;28;20036;-75
2022/04/22 10:53:25;;;;;;;9.07;3.65;;;16.50;97.20;;;;;;5038864;28;20051;-75
2022/04/22 10:55:51;;;;;;;8.43;4.18;;;16.60;96.40;;;;;;5039190;28;20118;-75
2022/04/22 10:58:17;;;;;;;7.32;3.67;;;16.50;96.40;;;;;;5056596;28;20036;-74
2022/04/22 11:00:46;;;;;;;7.70;3.50;;;16.40;97.20;;;;;;5056502;28;20106;-76
2022/04/22 11:03:16;;;;;;;4.93;3.08;;;16.40;97.10;;;;;;5039149;28;20049;-75
2022/04/22 11:05:54;;;;;;;8.50;3.38;;;16.60;97.60;;;;;;5036444;28;20041;-74
2022/04/22 11:08:37;;;;;;;7.07;3.97;;;16.80;97.90;;;;;;5019514;28;20091;-73
2022/04/22 11:11:13;;;;;;;8.60;3.60;;;17.00;96.30;;;;;;5002844;28;20051;-75
2022/04/22 11:13:48;;;;;;;6.57;3.10;;;16.80;95.80;;;;;;5036454;28;20076;-73
2022/04/22 11:16:22;;;;;;;6.25;3.67;;;17.00;94.90;;;;;;5036278;28;20385;-74
2022/04/22 11:19:18;;;;;;;6.13;3.33;;;16.90;94.50;;;;;;5018849;28;20048;-73
2022/04/22 11:21:52;;;;;;;11.60;3.72;;;16.80;95.10;;;;;;5002581;28;20049;-74
2022/04/22 11:24:31;;;;;;;7.22;3.28;;;16.70;95.00;;;;;;4955890;29;20054;-74
2022/04/22 11:27:08;;;;;;;6.68;3.30;;;16.80;95.00;;;;;;4953155;29;20043;-74
2022/04/22 11:29:34;;;;;;;7.63;3.40;;;16.80;95.10;;;;;;4956286;29;20075;-75
2022/04/22 11:32:23;;;;;;;6.43;3.58;;;16.80;95.10;;;;;;4956183;29;20083;-75
2022/04/22 11:35:07;;;;;;;10.68;3.70;;;16.70;95.40;;;;;;4959806;28;20051;-76
2022/04/22 11:37:34;;;;;;;5.15;3.60;;;16.70;94.60;;;;;;4955937;29;20156;-76
2022/04/22 11:39:59;;;;;;;8.38;3.92;;;16.80;95.00;;;;;;4954532;29;20086;-74
2022/04/22 11:42:25;;;;;;;8.93;3.70;;;17.10;95.90;;;;;;4939904;29;20055;-75
2022/04/22 11:45:04;;;;;;;7.43;3.47;;;17.20;94.60;;;;;;4939725;29;20051;-76
2022/04/22 11:47:29;;;;;;;11.20;3.90;;;17.30;93.80;;;;;;4939466;29;20047;-74
2022/04/22 11:49:56;;;;;;;6.53;3.63;;;17.60;93.90;;;;;;4939630;29;20491;-75
2022/04/22 11:52:22;;;;;;;8.57;3.38;;;17.60;93.40;;;;;;4955623;29;20071;-75
2022/04/22 11:54:50;;;;;;;5.55;3.47;;;17.50;93.40;;;;;;4967393;28;20049;-74
2022/04/22 11:57:21;;;;;;;6.78;4.13;;;17.40;93.20;;;;;;5018299;28;20483;-73
2022/04/22 12:05:32;;;;;;;5.03;3.58;;;17.50;93.50;;;;;;5035576;28;20037;-74
2022/04/22 12:05:32;;;;;;;9.00;3.55;;;17.50;93.60;;;;;;5037538;28;20453;-76
2022/04/22 12:08:18;;;;;;;7.22;3.80;;;17.40;93.80;;;;;;5038082;28;20037;-74
2022/04/22 12:10:46;;;;;;;8.30;3.50;;;17.50;94.50;;;;;;5038309;28;20126;-73
2022/04/22 12:13:17;;;;;;;7.05;4.35;;;17.80;94.70;;;;;;5037078;28;20051;-76
2022/04/22 12:15:48;;;;;;;8.18;4.38;;;17.70;93.50;;;;;;5021205;28;20129;-74
2022/04/22 12:18:34;;;;;;;6.70;4.32;;;17.80;94.00;;;;;;5031446;28;20044;-75
2022/04/22 12:21:05;;;;;;;7.75;3.85;;;17.70;93.20;;;;;;5037168;28;20118;-76
2022/04/22 12:23:36;;;;;;;7.60;4.13;;;17.80;93.70;;;;;;5037073;28;20041;-74
2022/04/22 12:26:01;;;;;;;7.15;3.90;;;18.00;94.10;;;;;;5020880;28;20040;-76
2022/04/22 12:28:28;;;;;;;7.72;4.20;;;18.20;93.30;;;;;;5037398;28;20041;-74
2022/04/22 12:30:53;;;;;;;6.57;3.80;;;18.30;92.70;;;;;;5033181;28;20067;-77
2022/04/22 12:33:23;;;;;;;7.15;4.10;;;18.30;93.00;;;;;;5041237;28;20041;-75
2022/04/22 12:35:59;;;;;;;7.93;3.63;;;18.50;93.70;;;;;;5013101;28;20045;-74
2022/04/22 12:38:25;;;;;;;5.75;3.78;;;18.80;93.00;;;;;;5034902;28;20048;-76
2022/04/22 12:40:51;;;;;;;9.00;4.15;;;18.80;92.80;;;;;;5035002;28;20033;-74
2022/04/22 12:43:27;;;;;;;8.45;4.13;;;18.90;92.80;;;;;;5017774;28;20057;-75
2022/04/22 12:52:08;;;;;;;10.18;3.95;;;19.10;91.80;;;;;;5034834;28;20052;-74
2022/04/22 12:54:35;;;;;;;7.18;3.97;;;19.20;91.50;;;;;;5035058;28;20433;-74
2022/04/22 12:57:01;;;;;;;5.63;3.90;;;19.10;91.80;;;;;;5034881;28;20041;-75
2022/04/22 12:59:47;;;;;;;9.77;5.30;;;19.20;91.70;;;;;;5000944;28;20485;-75
2022/04/22 13:02:14;;;;;;;8.18;4.53;;;19.20;91.30;;;;;;5038995;28;20037;-75
2022/04/22 13:05:05;;;;;;;8.18;4.80;;;19.20;90.90;;;;;;5017134;28;20037;-74
2022/04/22 13:07:49;;;;;;;11.65;5.47;;;19.20;91.10;;;;;;5017334;28;20038;-76
2022/04/22 13:10:17;;;;;;;10.60;4.70;;;19.40;91.50;;;;;;5017693;28;20095;-74
2022/04/22 13:12:44;;;;;;;6.55;4.13;;;19.40;91.00;;;;;;5034035;28;20049;-75
2022/04/22 13:15:17;;;;;;;8.38;4.57;;;19.20;91.00;;;;;;5035068;28;20053;-74
2022/04/22 13:17:43;;;;;;;;;;;19.10;91.50;;;;;;5034801;28;20464;-74
2022/04/22 13:20:12;;;;;;;9.55;4.85;;;19.30;91.60;;;;;;5034679;28;19925;-75
2022/04/22 13:22:38;;;;;;;8.40;5.32;;;19.40;92.00;;;;;;5034617;28;20048;-74
2022/04/22 13:25:04;;;;;;;8.55;4.40;;;19.50;91.10;;;;;;4984381;28;20045;-76
2022/04/22 13:27:30;;;;;;;9.25;5.47;;;19.50;91.50;;;;;;5000785;28;20045;-74
2022/04/22 13:29:56;;;;;;;13.60;5.32;;;19.70;91.20;;;;;;5027522;28;20048;-75
2022/04/22 13:32:21;;;;;;;10.20;5.13;;;19.60;91.20;;;;;;5020484;28;20048;-75
2022/04/22 13:34:47;;;;;;;9.77;5.30;;;19.50;91.00;;;;;;5036333;28;20099;-73
2022/04/22 13:37:13;;;;;;;9.27;5.70;;;19.40;91.30;;;;;;5036522;28;20052;-74
2022/04/22 13:39:38;;;;;;;10.43;4.97;;;19.30;91.10;;;;;;5053876;28;20044;-75
2022/04/22 13:42:04;;;;;;;7.80;4.95;;;19.40;91.30;;;;;;5054085;28;20064;-75
2022/04/22 13:52:44;;;;;;;10.10;4.95;;;18.90;91.50;;;;;;5057599;28;20037;-76
2022/04/22 13:55:13;;;;;;;8.40;4.53;;;19.10;91.70;;;;;;5057676;28;20053;-74
2022/04/22 13:57:39;;;;;;;7.35;4.82;;;19.20;91.60;;;;;;5040011;28;20041;-75